createdAt,value
2022-10-18T00:00:03.589Z,71.88
2022-10-18T00:02:30.761Z,71.81
2022-10-18T00:04:57.822Z,71.86
2022-10-18T00:07:24.366Z,71.95
2022-10-18T00:09:51.583Z,72.16
2022-10-18T00:12:18.198Z,72.24
2022-10-18T00:14:44.741Z,72.32
2022-10-18T00:17:11.837Z,72.33
2022-10-18T00:19:38.363Z,72.51
2022-10-18T00:22:05.230Z,72.61
2022-10-18T00:24:31.971Z,72.34
2022-10-18T00:26:58.969Z,72.72
2022-10-18T00:29:25.569Z,72.76
2022-10-18T00:31:52.383Z,72.67
2022-10-18T00:34:19.397Z,72.59
2022-10-18T00:36:46.154Z,72.66
2022-10-18T00:39:20.168Z,72.94
2022-10-18T00:41:47.872Z,72.70
2022-10-18T00:44:14.569Z,72.53
2022-10-18T00:46:47.059Z,72.88
2022-10-18T00:49:16.163Z,72.25
2022-10-18T00:51:46.991Z,72.66
2022-10-18T00:54:15.081Z,72.59
2022-10-18T00:56:41.899Z,72.54
2022-10-18T00:59:08.802Z,72.53
2022-10-18T01:01:35.390Z,72.14
2022-10-18T01:04:02.808Z,72.46
2022-10-18T01:06:30.037Z,72.20
2022-10-18T01:09:19.311Z,72.92
2022-10-18T01:11:53.258Z,72.85
2022-10-18T01:14:34.762Z,72.35
2022-10-18T01:17:08.657Z,72.30
2022-10-18T01:20:05.853Z,72.84
2022-10-18T01:22:32.632Z,72.34
2022-10-18T01:25:06.773Z,72.46
2022-10-18T01:27:36.089Z,72.08
2022-10-18T01:30:30.056Z,72.81
2022-10-18T01:33:26.741Z,72.32
2022-10-18T01:36:25.820Z,72.25
2022-10-18T01:38:56.630Z,71.87
2022-10-18T01:41:25.679Z,71.90
2022-10-18T01:43:57.753Z,72.04
2022-10-18T01:46:26.444Z,72.11
2022-10-18T01:48:54.595Z,71.89
2022-10-18T01:51:30.398Z,72.03
2022-10-18T01:53:57.901Z,71.73
2022-10-18T01:56:28.804Z,71.73
2022-10-18T01:59:33.124Z,72.38
2022-10-18T02:02:06.892Z,72.15
2022-10-18T02:05:07.675Z,72.13
2022-10-18T02:07:42.695Z,71.75
2022-10-18T02:10:22.643Z,71.86
2022-10-18T02:12:53.082Z,71.62
2022-10-18T02:15:33.329Z,72.00
2022-10-18T02:18:03.473Z,71.64
2022-10-18T02:20:32.418Z,71.64
2022-10-18T02:23:01.438Z,71.87
2022-10-18T02:25:30.856Z,71.89
2022-10-18T02:27:58.005Z,71.83
2022-10-18T02:30:30.542Z,71.98
2022-10-18T02:33:04.127Z,71.62
2022-10-18T02:35:44.835Z,71.80
2022-10-18T02:38:14.190Z,71.64
2022-10-18T02:40:40.856Z,71.30
2022-10-18T02:43:07.449Z,71.50
2022-10-18T02:45:34.361Z,71.46
2022-10-18T02:48:01.014Z,71.56
2022-10-18T02:50:28.003Z,71.79
2022-10-18T02:52:54.516Z,71.59
2022-10-18T02:55:21.176Z,71.43
2022-10-18T02:57:47.829Z,71.74
2022-10-18T03:00:15.012Z,71.31
2022-10-18T03:02:41.545Z,71.64
2022-10-18T03:05:08.687Z,71.43
2022-10-18T03:07:35.427Z,71.58
2022-10-18T03:10:02.272Z,71.30
2022-10-18T03:12:29.029Z,71.39
2022-10-18T03:14:55.565Z,71.57
2022-10-18T03:17:22.598Z,71.27
2022-10-18T03:19:49.221Z,71.51
2022-10-18T03:22:16.230Z,71.17
2022-10-18T03:24:42.944Z,71.14
2022-10-18T03:27:09.542Z,71.42
2022-10-18T03:29:36.710Z,71.29
2022-10-18T03:32:03.967Z,71.32
2022-10-18T03:34:30.504Z,71.40
2022-10-18T03:37:00.956Z,71.39
2022-10-18T03:39:30.034Z,71.68
2022-10-18T03:41:56.580Z,71.52
2022-10-18T03:44:23.118Z,71.25
2022-10-18T03:46:49.896Z,71.46
2022-10-18T03:49:16.734Z,71.30
2022-10-18T03:51:43.516Z,71.68
2022-10-18T03:54:10.162Z,71.59
2022-10-18T03:56:36.722Z,71.52
2022-10-18T03:59:04.535Z,71.58
2022-10-18T04:01:31.528Z,71.62
2022-10-18T04:03:58.119Z,71.62
2022-10-18T04:06:24.697Z,71.52
2022-10-18T04:08:51.232Z,71.71
2022-10-18T04:11:17.857Z,71.44
2022-10-18T04:13:44.388Z,71.59
2022-10-18T04:16:11.057Z,71.74
2022-10-18T04:18:37.920Z,71.41
2022-10-18T04:21:04.560Z,71.59
2022-10-18T04:23:32.801Z,71.57
2022-10-18T04:26:03.213Z,71.48
2022-10-18T04:28:29.835Z,71.50
2022-10-18T04:30:56.700Z,71.34
2022-10-18T04:33:23.514Z,71.09
2022-10-18T04:35:52.659Z,71.46
2022-10-18T04:38:20.415Z,71.21
2022-10-18T04:40:46.993Z,71.34
2022-10-18T04:43:13.857Z,71.48
2022-10-18T04:45:40.520Z,71.52
2022-10-18T04:48:07.120Z,71.57
2022-10-18T04:50:33.643Z,71.67
2022-10-18T04:53:00.441Z,71.31
2022-10-18T04:55:26.977Z,71.30
2022-10-18T04:57:53.691Z,71.69
2022-10-18T05:00:20.461Z,71.54
2022-10-18T05:02:47.235Z,71.62
2022-10-18T05:05:14.297Z,71.41
2022-10-18T05:07:41.721Z,71.37
2022-10-18T05:10:08.803Z,71.41
2022-10-18T05:12:35.590Z,71.65
2022-10-18T05:15:02.261Z,71.35
2022-10-18T05:17:29.374Z,71.60
2022-10-18T05:19:56.006Z,71.56
2022-10-18T05:22:22.556Z,71.57
2022-10-18T05:24:49.068Z,71.59
2022-10-18T05:27:15.644Z,71.43
2022-10-18T05:29:42.277Z,71.56
2022-10-18T05:32:08.891Z,71.47
2022-10-18T05:34:36.721Z,71.94
2022-10-18T05:37:03.402Z,71.65
2022-10-18T05:39:29.936Z,71.81
2022-10-18T05:41:58.150Z,71.42
2022-10-18T05:44:24.655Z,71.41
2022-10-18T05:46:51.207Z,71.35
2022-10-18T05:49:17.980Z,71.08
2022-10-18T05:51:44.662Z,71.24
2022-10-18T05:54:14.619Z,71.58
2022-10-18T05:56:41.813Z,71.26
2022-10-18T05:59:12.251Z,71.24
2022-10-18T06:01:40.609Z,71.45
2022-10-18T06:04:08.095Z,71.22
2022-10-18T06:06:34.716Z,71.22
2022-10-18T06:09:03.302Z,71.49
2022-10-18T06:11:30.909Z,71.58
2022-10-18T06:14:00.299Z,71.40
2022-10-18T06:16:32.233Z,71.43
2022-10-18T06:19:00.083Z,71.42
2022-10-18T06:21:27.718Z,71.68
2022-10-18T06:23:59.440Z,71.58
2022-10-18T06:26:27.745Z,71.75
2022-10-18T06:28:54.371Z,71.81
2022-10-18T06:31:21.368Z,71.69
2022-10-18T06:33:48.064Z,71.73
2022-10-18T06:36:17.365Z,71.72
2022-10-18T06:38:45.009Z,71.64
2022-10-18T06:41:11.688Z,71.55
2022-10-18T06:43:38.404Z,71.32
2022-10-18T06:46:07.819Z,71.66
2022-10-18T06:48:37.012Z,71.36
2022-10-18T06:51:05.763Z,71.19
2022-10-18T06:53:35.241Z,71.12
2022-10-18T06:56:07.215Z,71.23
2022-10-18T06:58:35.269Z,71.02
2022-10-18T07:01:16.153Z,71.64
2022-10-18T07:03:43.905Z,71.12
2022-10-18T07:06:12.853Z,71.03
2022-10-18T07:08:40.505Z,71.08
2022-10-18T07:11:08.057Z,71.00
2022-10-18T07:13:34.765Z,70.74
2022-10-18T07:16:04.504Z,71.16
2022-10-18T07:18:33.192Z,71.23
2022-10-18T07:21:05.255Z,71.03
2022-10-18T07:23:37.047Z,71.06
2022-10-18T07:26:11.591Z,71.38
2022-10-18T07:28:38.466Z,71.20
2022-10-18T07:31:06.491Z,71.32
2022-10-18T07:33:33.849Z,70.98
2022-10-18T07:36:05.361Z,71.00
2022-10-18T07:38:32.343Z,71.05
2022-10-18T07:41:04.575Z,71.41
2022-10-18T07:43:31.228Z,71.19
2022-10-18T07:46:00.494Z,71.20
2022-10-18T07:48:27.483Z,70.99
2022-10-18T07:50:54.599Z,70.85
2022-10-18T07:53:21.188Z,71.22
2022-10-18T07:55:47.775Z,71.18
2022-10-18T07:58:14.310Z,70.71
2022-10-18T08:00:40.962Z,70.86
2022-10-18T08:03:07.570Z,70.90
2022-10-18T08:05:34.278Z,71.26
2022-10-18T08:08:04.227Z,70.69
2022-10-18T08:10:36.263Z,70.73
2022-10-18T08:13:02.805Z,70.75
2022-10-18T08:15:29.333Z,70.79
2022-10-18T08:17:55.824Z,70.93
2022-10-18T08:20:31.201Z,70.91
2022-10-18T08:23:00.445Z,71.18
2022-10-18T08:25:28.793Z,71.05
2022-10-18T08:27:55.358Z,71.11
2022-10-18T08:30:23.434Z,70.78
2022-10-18T08:32:50.052Z,70.67
2022-10-18T08:35:16.787Z,70.59
2022-10-18T08:37:45.281Z,70.82
2022-10-18T08:40:15.841Z,70.84
2022-10-18T08:43:03.528Z,69.95
2022-10-18T08:45:42.465Z,70.00
2022-10-18T08:48:39.753Z,69.19
2022-10-18T08:51:22.801Z,69.02
2022-10-18T08:54:01.965Z,68.51
2022-10-18T08:56:28.514Z,68.56
2022-10-18T08:58:55.321Z,68.56
2022-10-18T09:01:34.141Z,67.98
2022-10-18T09:04:15.336Z,68.59
2022-10-18T09:07:02.032Z,69.04
2022-10-18T09:10:00.849Z,68.55
2022-10-18T09:12:36.286Z,68.06
2022-10-18T09:15:27.726Z,68.43
2022-10-18T09:18:03.387Z,68.34
2022-10-18T09:20:57.595Z,67.78
2022-10-18T09:23:45.895Z,67.53
2022-10-18T09:26:21.200Z,67.37
2022-10-18T09:29:10.800Z,66.74
2022-10-18T09:32:04.879Z,67.04
2022-10-18T09:34:50.897Z,66.95
2022-10-18T09:37:20.902Z,67.11
2022-10-18T09:39:50.529Z,67.33
2022-10-18T09:42:30.695Z,67.36
2022-10-18T09:45:14.092Z,67.28
2022-10-18T09:47:47.829Z,67.19
2022-10-18T09:50:29.649Z,67.73
2022-10-18T09:53:12.248Z,67.34
2022-10-18T09:56:02.385Z,67.33
2022-10-18T09:58:44.614Z,66.83
2022-10-18T10:01:15.667Z,66.89
2022-10-18T10:03:42.693Z,66.93
2022-10-18T10:06:12.312Z,66.54
2022-10-18T10:08:44.482Z,66.41
2022-10-18T10:11:50.732Z,66.53
2022-10-18T10:14:25.945Z,66.57
2022-10-18T10:17:20.775Z,66.37
2022-10-18T10:19:59.129Z,65.25
2022-10-18T10:22:39.188Z,65.21
2022-10-18T10:25:07.286Z,66.05
2022-10-18T10:27:43.372Z,65.76
2022-10-18T10:30:28.574Z,65.82
2022-10-18T10:32:56.629Z,66.21
2022-10-18T10:38:27.395Z,66.00
2022-10-18T10:40:54.706Z,65.59
2022-10-18T10:43:39.137Z,64.06
2022-10-18T10:46:20.598Z,64.13
2022-10-18T10:49:04.467Z,64.02
2022-10-18T10:51:41.173Z,64.26
2022-10-18T10:54:17.896Z,63.23
2022-10-18T10:57:05.409Z,63.54
2022-10-18T10:59:51.522Z,63.29
2022-10-18T11:02:28.771Z,63.79
2022-10-18T11:04:57.294Z,63.54
2022-10-18T11:07:44.222Z,61.59
2022-10-18T11:10:10.741Z,62.38
2022-10-18T11:12:43.284Z,60.12
2022-10-18T11:15:16.056Z,58.96
2022-10-18T11:17:46.393Z,60.99
2022-10-18T11:20:13.066Z,60.80
2022-10-18T11:22:51.895Z,59.11
2022-10-18T11:25:22.073Z,62.70
2022-10-18T11:27:57.588Z,59.94
2022-10-18T11:30:48.989Z,59.00
2022-10-18T11:34:03.506Z,58.30
2022-10-18T11:36:55.015Z,57.01
2022-10-18T11:39:45.641Z,54.18
2022-10-18T11:42:23.996Z,52.24
2022-10-18T11:45:12.046Z,50.65
2022-10-18T11:47:55.724Z,51.64
2022-10-18T11:50:49.838Z,47.71
2022-10-18T11:53:28.376Z,46.44
2022-10-18T11:56:25.890Z,47.38
2022-10-18T11:59:11.897Z,45.22
2022-10-18T12:01:49.792Z,43.68
2022-10-18T12:04:20.264Z,42.83
2022-10-18T12:06:50.523Z,41.50
2022-10-18T12:09:44.181Z,41.97
2022-10-18T12:12:23.779Z,40.58
2022-10-18T12:15:07.229Z,40.88
2022-10-18T12:17:46.187Z,38.08
2022-10-18T12:20:27.888Z,37.01
2022-10-18T12:23:02.915Z,37.32
2022-10-18T12:25:32.769Z,37.31
2022-10-18T12:28:20.668Z,35.96
2022-10-18T12:31:05.518Z,35.58
2022-10-18T12:33:39.523Z,34.45
2022-10-18T12:36:29.381Z,34.64
2022-10-18T12:39:00.471Z,34.53
2022-10-18T12:41:30.054Z,33.33
2022-10-18T12:44:03.690Z,33.15
2022-10-18T12:46:59.511Z,34.98
2022-10-18T12:49:40.154Z,31.59
2022-10-18T12:52:26.711Z,31.11
2022-10-18T12:55:15.179Z,32.13
2022-10-18T12:57:52.725Z,32.59
2022-10-18T13:00:31.708Z,33.94
2022-10-18T13:03:10.724Z,35.22
2022-10-18T13:05:53.884Z,36.07
2022-10-18T13:08:38.124Z,36.07
2022-10-18T13:11:10.629Z,36.18
2022-10-18T13:13:50.674Z,37.09
2022-10-18T13:16:23.496Z,37.18
2022-10-18T13:19:08.615Z,39.62
2022-10-18T13:21:50.437Z,38.88
2022-10-18T13:24:39.556Z,39.05
2022-10-18T13:27:36.312Z,39.06
2022-10-18T13:30:24.718Z,38.78
2022-10-18T13:33:17.107Z,38.72
2022-10-18T13:36:05.449Z,39.53
2022-10-18T13:38:38.285Z,37.74
2022-10-18T13:41:04.859Z,41.22
2022-10-18T13:43:53.336Z,40.05
2022-10-18T13:46:20.898Z,40.30
2022-10-18T13:49:10.093Z,39.93
2022-10-18T13:51:51.935Z,40.63
2022-10-18T13:54:36.961Z,41.93
2022-10-18T13:57:29.804Z,41.58
2022-10-18T14:00:16.757Z,42.47
2022-10-18T14:03:01.993Z,41.08
2022-10-18T14:05:51.896Z,39.02
2022-10-18T14:11:24.956Z,37.01
2022-10-18T14:13:54.963Z,36.12
2022-10-18T14:16:27.880Z,34.34
2022-10-18T14:19:01.720Z,33.86
2022-10-18T14:21:37.749Z,32.19
2022-10-18T14:24:17.782Z,32.29
2022-10-18T14:26:44.359Z,32.76
2022-10-18T14:29:19.501Z,31.51
2022-10-18T14:31:53.630Z,30.55
2022-10-18T14:34:21.717Z,30.84
2022-10-18T14:36:49.717Z,30.36
2022-10-18T14:39:28.145Z,30.41
2022-10-18T14:41:56.603Z,29.81
2022-10-18T14:44:27.482Z,29.42
2022-10-18T14:47:16.396Z,31.20
2022-10-18T14:49:44.726Z,30.17
2022-10-18T14:52:15.577Z,29.75
2022-10-18T14:54:42.793Z,29.07
2022-10-18T14:57:18.004Z,28.97
2022-10-18T14:59:51.865Z,28.71
2022-10-18T15:02:24.278Z,28.85
2022-10-18T15:05:16.497Z,30.44
2022-10-18T15:07:44.220Z,29.42
2022-10-18T15:10:17.184Z,29.68
2022-10-18T15:13:08.231Z,29.95
2022-10-18T15:15:34.722Z,30.41
2022-10-18T15:18:02.256Z,31.18
2022-10-18T15:20:31.912Z,31.96
2022-10-18T15:23:23.298Z,33.11
2022-10-18T15:25:51.739Z,32.74
2022-10-18T15:28:39.437Z,34.48
2022-10-18T15:31:06.921Z,34.25
2022-10-18T15:33:36.324Z,34.76
2022-10-18T15:36:11.867Z,36.16
2022-10-18T15:38:38.919Z,35.90
2022-10-18T15:41:50.939Z,37.01
2022-10-18T15:44:32.051Z,37.58
2022-10-18T15:47:13.919Z,37.86
2022-10-18T15:49:46.392Z,38.03
2022-10-18T15:52:21.757Z,38.71
2022-10-18T15:57:20.377Z,38.88
2022-10-18T16:00:07.996Z,39.84
2022-10-18T16:02:34.528Z,39.27
2022-10-18T16:05:03.027Z,39.82
2022-10-18T16:07:29.936Z,40.36
2022-10-18T16:09:56.806Z,40.45
2022-10-18T16:12:23.354Z,40.48
2022-10-18T16:14:49.917Z,40.70
2022-10-18T16:17:17.428Z,41.11
2022-10-18T16:19:44.748Z,41.34
2022-10-18T16:24:40.734Z,41.56
2022-10-18T16:27:07.450Z,41.91
2022-10-18T16:29:34.566Z,42.22
2022-10-18T16:32:01.294Z,42.15
2022-10-18T16:34:28.057Z,42.48
2022-10-18T16:36:55.148Z,42.91
2022-10-18T16:39:22.382Z,42.99
2022-10-18T16:41:49.280Z,43.10
2022-10-18T16:44:17.185Z,43.47
2022-10-18T16:46:44.262Z,43.61
2022-10-18T16:49:23.994Z,44.21
2022-10-18T16:51:54.893Z,44.16
2022-10-18T16:54:22.154Z,43.84
2022-10-18T16:56:50.266Z,43.90
2022-10-18T16:59:25.773Z,44.87
2022-10-18T17:01:52.345Z,44.65
2022-10-18T17:04:18.936Z,44.83
2022-10-18T17:06:45.663Z,44.43
2022-10-18T17:09:15.001Z,44.69
2022-10-18T17:11:42.857Z,44.53
2022-10-18T17:14:09.397Z,45.20
2022-10-18T17:16:38.908Z,45.26
2022-10-18T17:19:08.180Z,45.50
2022-10-18T17:21:35.306Z,45.54
2022-10-18T17:24:03.288Z,45.70
2022-10-18T17:26:30.693Z,45.82
2022-10-18T17:29:01.118Z,46.32
2022-10-18T17:31:29.089Z,46.01
2022-10-18T17:33:55.879Z,46.22
2022-10-18T17:36:22.958Z,46.57
2022-10-18T17:38:53.882Z,47.17
2022-10-18T17:41:21.082Z,46.60
2022-10-18T17:43:48.672Z,46.92
2022-10-18T17:46:16.103Z,47.13
2022-10-18T17:48:43.209Z,46.93
2022-10-18T17:51:11.529Z,47.17
2022-10-18T17:53:38.412Z,47.23
2022-10-18T17:56:07.396Z,47.45
2022-10-18T17:58:34.222Z,47.50
2022-10-18T18:01:19.108Z,47.75
2022-10-18T18:03:47.807Z,47.64
2022-10-18T18:06:20.865Z,48.40
2022-10-18T18:08:48.213Z,47.38
2022-10-18T18:11:15.226Z,47.69
2022-10-18T18:13:41.862Z,47.77
2022-10-18T18:16:14.608Z,48.35
2022-10-18T18:18:41.594Z,48.26
2022-10-18T18:21:08.204Z,48.44
2022-10-18T18:23:34.743Z,48.44
2022-10-18T18:26:01.332Z,48.55
2022-10-18T18:28:27.953Z,48.97
2022-10-18T18:30:54.580Z,49.12
2022-10-18T18:33:21.194Z,49.05
2022-10-18T18:35:55.774Z,49.62
2022-10-18T18:38:22.282Z,48.92
2022-10-18T18:40:48.927Z,49.21
2022-10-18T18:43:23.516Z,49.08
2022-10-18T18:45:51.996Z,49.09
2022-10-18T18:48:19.893Z,49.18
2022-10-18T18:50:51.856Z,49.33
2022-10-18T18:53:19.227Z,49.40
2022-10-18T18:55:45.963Z,49.49
2022-10-18T18:58:12.641Z,49.47
2022-10-18T19:00:43.531Z,50.11
2022-10-18T19:03:12.150Z,49.74
2022-10-18T19:05:38.940Z,49.92
2022-10-18T19:08:05.983Z,49.91
2022-10-18T19:10:32.618Z,50.01
2022-10-18T19:12:59.332Z,50.19
2022-10-18T19:15:26.159Z,50.10
2022-10-18T19:17:52.708Z,50.44
2022-10-18T19:20:19.629Z,50.46
2022-10-18T19:22:46.473Z,50.62
2022-10-18T19:25:13.539Z,50.89
2022-10-18T19:27:40.254Z,50.91
2022-10-18T19:30:10.964Z,51.24
2022-10-18T19:32:37.499Z,51.07
2022-10-18T19:35:04.928Z,51.17
2022-10-18T19:37:31.782Z,51.45
2022-10-18T19:39:59.530Z,51.54
2022-10-18T19:42:28.963Z,51.59
2022-10-18T19:44:57.799Z,51.60
2022-10-18T19:47:24.549Z,51.73
2022-10-18T19:49:52.790Z,51.88
2022-10-18T19:52:19.471Z,51.92
2022-10-18T19:54:48.774Z,52.31
2022-10-18T19:57:15.827Z,51.96
2022-10-18T19:59:42.492Z,51.98
2022-10-18T20:02:14.157Z,52.78
2022-10-18T20:04:40.791Z,52.14
2022-10-18T20:07:07.321Z,52.35
2022-10-18T20:09:34.169Z,52.41
2022-10-18T20:12:00.746Z,52.44
2022-10-18T20:14:27.265Z,52.34
2022-10-18T20:16:53.994Z,52.43
2022-10-18T20:19:20.526Z,52.28
2022-10-18T20:21:47.399Z,52.39
2022-10-18T20:24:13.964Z,52.67
2022-10-18T20:26:40.671Z,52.76
2022-10-18T20:29:08.082Z,52.82
2022-10-18T20:31:38.400Z,52.88
2022-10-18T20:34:07.773Z,53.15
2022-10-18T20:36:34.953Z,52.99
2022-10-18T20:39:02.368Z,52.91
2022-10-18T20:41:32.140Z,53.28
2022-10-18T20:44:01.293Z,53.16
2022-10-18T20:46:31.352Z,53.49
2022-10-18T20:48:58.251Z,53.10
2022-10-18T20:51:24.892Z,53.25
2022-10-18T20:53:53.611Z,53.50
2022-10-18T20:56:23.143Z,53.70
2022-10-18T20:58:51.825Z,53.92
2022-10-18T21:01:21.925Z,53.83
2022-10-18T21:03:50.979Z,53.76
2022-10-18T21:06:23.718Z,54.46
2022-10-18T21:08:55.994Z,54.24
2022-10-18T21:11:23.166Z,53.93
2022-10-18T21:13:51.503Z,54.10
2022-10-18T21:16:18.287Z,54.01
2022-10-18T21:18:45.110Z,53.92
2022-10-18T21:23:46.047Z,54.20
2022-10-18T21:26:18.876Z,54.26
2022-10-18T21:28:46.246Z,53.88
2022-10-18T21:31:16.157Z,54.41
2022-10-18T21:33:44.490Z,54.16
2022-10-18T21:36:11.758Z,54.19
2022-10-18T21:38:38.868Z,54.32
2022-10-18T21:41:10.595Z,55.24
2022-10-18T21:43:41.280Z,55.23
2022-10-18T21:46:10.137Z,54.58
2022-10-18T21:48:37.798Z,54.58
2022-10-18T21:51:06.696Z,54.72
2022-10-18T21:53:33.504Z,54.53
2022-10-18T21:56:11.655Z,55.79
2022-10-18T21:58:39.014Z,54.96
2022-10-18T22:01:13.790Z,55.67
2022-10-18T22:03:40.743Z,55.04
2022-10-18T22:06:13.240Z,55.14
2022-10-18T22:08:53.220Z,55.41
2022-10-18T22:11:23.187Z,55.05
2022-10-18T22:13:49.781Z,54.91
2022-10-18T22:16:17.133Z,55.04
2022-10-18T22:18:45.188Z,55.26
2022-10-18T22:21:13.688Z,55.35
2022-10-18T22:23:46.542Z,56.12
2022-10-18T22:26:15.128Z,55.73
2022-10-18T22:28:42.927Z,55.43
2022-10-18T22:31:21.511Z,56.37
2022-10-18T22:33:53.526Z,56.24
2022-10-18T22:36:20.413Z,55.60
2022-10-18T22:38:47.003Z,55.55
2022-10-18T22:41:13.788Z,55.49
2022-10-18T22:43:40.858Z,55.57
2022-10-18T22:46:10.942Z,55.93
2022-10-18T22:48:37.965Z,55.51
2022-10-18T22:51:05.519Z,55.90
2022-10-18T22:53:33.177Z,55.95
2022-10-18T22:56:00.438Z,55.84
2022-10-18T22:58:27.065Z,55.92
2022-10-18T23:01:01.593Z,56.49
2022-10-18T23:03:28.348Z,55.85
2022-10-18T23:05:55.203Z,55.96
2022-10-18T23:08:21.715Z,55.82
2022-10-18T23:10:52.609Z,56.12
2022-10-18T23:13:19.328Z,55.87
2022-10-18T23:15:45.927Z,55.89
2022-10-18T23:18:12.887Z,55.91
2022-10-18T23:20:39.542Z,56.02
2022-10-18T23:23:06.265Z,55.94
2022-10-18T23:25:36.547Z,56.47
2022-10-18T23:28:04.136Z,56.11
2022-10-18T23:30:30.814Z,56.08
2022-10-18T23:32:57.377Z,56.31
2022-10-18T23:35:23.991Z,56.26
2022-10-18T23:37:51.698Z,56.86
2022-10-18T23:40:18.318Z,56.81
2022-10-18T23:42:46.521Z,56.47
2022-10-18T23:45:13.051Z,56.40
2022-10-18T23:47:39.840Z,56.42
2022-10-18T23:50:06.692Z,56.49
2022-10-18T23:52:33.384Z,56.39
2022-10-18T23:54:59.945Z,56.69
2022-10-18T23:57:26.658Z,56.54
2022-10-18T23:59:53.575Z,56.46
